createdAt,value
2018-04-15T00:00:13.121Z,21.77
2018-04-15T00:02:40.664Z,20.50
2018-04-15T00:05:08.210Z,21.37
2018-04-15T00:07:35.765Z,22.77
2018-04-15T00:10:03.413Z,19.33
2018-04-15T00:12:30.959Z,21.80
2018-04-15T00:14:58.507Z,22.50
2018-04-15T00:17:26.083Z,24.00
2018-04-15T00:19:53.652Z,21.83
2018-04-15T00:22:21.200Z,27.80
2018-04-15T00:24:49.117Z,24.73
2018-04-15T00:27:16.682Z,22.53
2018-04-15T00:29:44.239Z,25.60
2018-04-15T00:32:11.836Z,19.47
2018-04-15T00:34:39.388Z,26.73
2018-04-15T00:37:06.938Z,22.47
2018-04-15T00:39:34.523Z,24.60
2018-04-15T00:42:02.115Z,23.60
2018-04-15T00:44:29.662Z,26.73
2018-04-15T00:46:57.751Z,22.27
2018-04-15T00:49:25.300Z,19.73
2018-04-15T00:51:52.850Z,21.03
2018-04-15T00:54:20.448Z,18.97
2018-04-15T00:56:47.986Z,27.30
2018-04-15T00:59:15.528Z,23.20
2018-04-15T01:01:43.253Z,24.50
2018-04-15T01:04:10.790Z,23.63
2018-04-15T01:06:38.337Z,25.97
2018-04-15T01:09:07.011Z,20.07
2018-04-15T01:11:34.564Z,23.37
2018-04-15T01:14:02.127Z,23.17
2018-04-15T01:16:29.720Z,25.80
2018-04-15T01:18:57.256Z,20.63
2018-04-15T01:21:24.804Z,19.63
2018-04-15T01:23:52.480Z,21.93
2018-04-15T01:26:20.056Z,26.27
2018-04-15T01:28:47.603Z,26.43
2018-04-15T01:31:15.172Z,23.40
2018-04-15T01:33:42.712Z,25.33
2018-04-15T01:36:10.261Z,26.07
2018-04-15T01:38:37.982Z,22.93
2018-04-15T01:41:05.518Z,23.73
2018-04-15T01:43:33.062Z,19.37
2018-04-15T01:46:00.957Z,22.77
2018-04-15T01:48:28.517Z,17.50
2018-04-15T01:50:56.078Z,23.97
2018-04-15T01:53:23.666Z,15.83
2018-04-15T01:55:51.222Z,19.07
2018-04-15T01:58:18.774Z,21.67
2018-04-15T02:00:46.368Z,16.83
2018-04-15T02:03:13.931Z,20.87
2018-04-15T02:05:41.475Z,25.20
2018-04-15T02:08:09.058Z,23.67
2018-04-15T02:10:36.599Z,19.73
2018-04-15T02:13:04.160Z,17.93
2018-04-15T02:15:31.730Z,20.10
2018-04-15T02:17:59.276Z,20.80
2018-04-15T02:20:26.811Z,20.70
2018-04-15T02:22:54.698Z,22.40
2018-04-15T02:25:22.253Z,22.17
2018-04-15T02:27:49.808Z,26.37
2018-04-15T02:30:17.379Z,21.97
2018-04-15T02:32:44.928Z,24.37
2018-04-15T02:35:12.475Z,19.70
2018-04-15T02:37:40.067Z,23.23
2018-04-15T02:40:07.619Z,19.83
2018-04-15T02:42:35.175Z,16.83
2018-04-15T02:45:02.776Z,21.73
2018-04-15T02:47:30.340Z,16.17
2018-04-15T02:49:57.893Z,22.30
2018-04-15T02:52:25.564Z,16.90
2018-04-15T02:54:53.117Z,21.67
2018-04-15T02:57:20.656Z,14.83
2018-04-15T02:59:48.263Z,24.40
2018-04-15T03:02:15.805Z,16.07
2018-04-15T03:04:43.340Z,17.37
2018-04-15T03:07:10.913Z,21.90
2018-04-15T03:09:38.444Z,13.37
2018-04-15T03:12:05.992Z,16.90
2018-04-15T03:14:33.560Z,14.87
2018-04-15T03:17:01.103Z,12.37
2018-04-15T03:19:28.652Z,25.90
2018-04-15T03:21:56.221Z,15.00
2018-04-15T03:24:23.772Z,14.23
2018-04-15T03:26:51.321Z,11.37
2018-04-15T03:29:18.993Z,15.70
2018-04-15T03:31:46.539Z,14.63
2018-04-15T03:34:14.074Z,17.50
2018-04-15T03:36:41.643Z,14.23
2018-04-15T03:39:09.191Z,15.33
2018-04-15T03:41:36.741Z,12.77
2018-04-15T03:44:04.309Z,18.20
2018-04-15T03:46:31.851Z,10.80
2018-04-15T03:48:59.398Z,21.63
2018-04-15T03:51:26.963Z,19.60
2018-04-15T03:53:54.512Z,13.90
2018-04-15T03:56:22.052Z,18.40
2018-04-15T03:58:49.934Z,14.93
2018-04-15T04:01:17.505Z,19.33
2018-04-15T04:03:45.052Z,13.03
2018-04-15T04:06:12.777Z,17.77
2018-04-15T04:08:40.316Z,20.37
2018-04-15T04:11:07.855Z,18.57
2018-04-15T04:13:35.455Z,15.07
2018-04-15T04:16:03.031Z,13.10
2018-04-15T04:18:42.252Z,16.67
2018-04-15T04:21:21.542Z,17.67
2018-04-15T04:24:00.790Z,13.70
2018-04-15T04:26:28.336Z,20.10
2018-04-15T04:28:55.914Z,15.80
2018-04-15T04:31:23.498Z,17.13
2018-04-15T04:33:51.037Z,14.93
2018-04-15T04:36:18.571Z,17.97
2018-04-15T04:38:46.178Z,15.77
2018-04-15T04:41:13.728Z,13.93
2018-04-15T04:43:41.275Z,12.40
2018-04-15T04:46:08.836Z,13.20
2018-04-15T04:48:36.381Z,10.03
2018-04-15T04:51:03.934Z,12.60
2018-04-15T04:53:31.657Z,14.67
2018-04-15T04:55:59.201Z,12.67
2018-04-15T04:58:26.760Z,12.93
2018-04-15T05:00:54.476Z,21.80
2018-04-15T05:03:22.046Z,14.57
2018-04-15T05:05:49.629Z,15.23
2018-04-15T05:08:17.300Z,13.30
2018-04-15T05:10:44.840Z,15.77
2018-04-15T05:13:12.396Z,13.07
2018-04-15T05:15:40.019Z,13.17
2018-04-15T05:18:07.544Z,17.07
2018-04-15T05:20:35.082Z,19.30
2018-04-15T05:23:02.821Z,14.33
2018-04-15T05:25:30.376Z,18.80
2018-04-15T05:27:57.992Z,16.87
2018-04-15T05:30:25.737Z,11.80
2018-04-15T05:32:53.285Z,18.57
2018-04-15T05:35:20.836Z,18.37
2018-04-15T05:37:48.529Z,23.73
2018-04-15T05:40:16.063Z,18.33
2018-04-15T05:42:43.606Z,15.43
2018-04-15T05:45:11.185Z,12.17
2018-04-15T05:47:38.756Z,26.77
2018-04-15T05:50:06.332Z,21.10
2018-04-15T05:52:33.904Z,12.53
2018-04-15T05:55:01.449Z,8.00
2018-04-15T05:57:28.998Z,10.63
2018-04-15T05:59:56.582Z,11.97
2018-04-15T06:02:24.120Z,11.20
2018-04-15T06:04:51.662Z,9.63
2018-04-15T06:07:19.524Z,8.00
2018-04-15T06:09:47.065Z,12.03
2018-04-15T06:12:14.635Z,15.47
2018-04-15T06:14:42.237Z,15.53
2018-04-15T06:17:09.787Z,14.13
2018-04-15T06:19:37.356Z,13.27
2018-04-15T06:22:04.961Z,14.67
2018-04-15T06:24:32.524Z,11.70
2018-04-15T06:27:00.082Z,13.20
2018-04-15T06:29:27.775Z,16.00
2018-04-15T06:31:56.204Z,10.90
2018-04-15T06:34:23.756Z,17.33
2018-04-15T06:36:51.536Z,14.10
2018-04-15T06:39:19.073Z,11.83
2018-04-15T06:41:46.629Z,11.97
2018-04-15T06:44:14.222Z,16.20
2018-04-15T06:46:41.776Z,15.97
2018-04-15T06:49:09.324Z,15.13
2018-04-15T06:51:37.904Z,13.57
2018-04-15T06:54:05.459Z,14.83
2018-04-15T06:56:33.037Z,14.97
2018-04-15T06:59:00.633Z,13.70
2018-04-15T07:01:28.227Z,17.53
2018-04-15T07:03:55.766Z,23.77
2018-04-15T07:06:23.441Z,16.40
2018-04-15T07:08:50.981Z,13.37
2018-04-15T07:11:18.556Z,14.00
2018-04-15T07:13:46.287Z,9.23
2018-04-15T07:16:13.823Z,15.23
2018-04-15T07:18:41.392Z,11.53
2018-04-15T07:21:09.127Z,19.90
2018-04-15T07:23:36.673Z,13.80
2018-04-15T07:26:04.244Z,12.53
2018-04-15T07:28:31.827Z,12.77
2018-04-15T07:30:59.368Z,19.57
2018-04-15T07:33:27.145Z,20.30
2018-04-15T07:35:54.908Z,12.93
2018-04-15T07:38:22.481Z,14.23
2018-04-15T07:40:50.048Z,16.33
2018-04-15T07:43:17.642Z,23.07
2018-04-15T07:45:45.216Z,17.30
2018-04-15T07:48:12.784Z,21.03
2018-04-15T07:50:40.372Z,13.53
2018-04-15T07:53:07.921Z,18.07
2018-04-15T07:55:35.475Z,10.67
2018-04-15T07:58:03.196Z,11.90
2018-04-15T08:00:30.737Z,12.17
2018-04-15T08:02:58.301Z,15.53
2018-04-15T08:05:25.857Z,10.40
2018-04-15T08:07:53.403Z,12.07
2018-04-15T08:10:21.000Z,15.03
2018-04-15T08:12:48.545Z,15.47
2018-04-15T08:15:16.087Z,16.50
2018-04-15T08:17:43.830Z,12.80
2018-04-15T08:20:11.390Z,13.47
2018-04-15T08:22:38.932Z,15.57
2018-04-15T08:25:06.526Z,12.33
2018-04-15T08:27:34.064Z,21.60
2018-04-15T08:30:01.629Z,11.93
2018-04-15T08:32:29.212Z,11.03
2018-04-15T08:34:56.762Z,18.23
2018-04-15T08:37:24.304Z,13.40
2018-04-15T08:39:51.890Z,11.93
2018-04-15T08:42:19.440Z,11.57
2018-04-15T08:44:46.979Z,10.83
2018-04-15T08:47:14.578Z,10.67
2018-04-15T08:49:42.122Z,12.60
2018-04-15T08:52:09.679Z,19.70
2018-04-15T08:54:37.253Z,18.53
2018-04-15T08:57:04.839Z,17.50
2018-04-15T08:59:32.389Z,17.27
2018-04-15T09:02:00.157Z,12.23
2018-04-15T09:04:27.696Z,23.33
2018-04-15T09:06:55.246Z,14.73
2018-04-15T09:09:22.832Z,16.30
2018-04-15T09:11:50.423Z,15.60
2018-04-15T09:14:17.960Z,21.73
2018-04-15T09:16:45.747Z,11.17
2018-04-15T09:19:13.302Z,18.70
2018-04-15T09:21:40.850Z,21.70
2018-04-15T09:24:08.624Z,11.70
2018-04-15T09:26:36.186Z,16.57
2018-04-15T09:29:03.741Z,18.63
2018-04-15T09:31:31.575Z,26.60
2018-04-15T09:33:59.122Z,22.67
2018-04-15T09:36:26.686Z,18.27
2018-04-15T09:38:54.423Z,19.70
2018-04-15T09:41:21.971Z,19.80
2018-04-15T09:43:49.507Z,19.30
2018-04-15T09:46:17.136Z,10.97
2018-04-15T09:48:44.680Z,25.30
2018-04-15T09:51:12.233Z,13.00
2018-04-15T09:53:39.817Z,26.90
2018-04-15T09:56:07.358Z,15.97
2018-04-15T09:58:34.912Z,15.17
2018-04-15T10:01:03.325Z,18.30
2018-04-15T10:03:30.896Z,16.33
2018-04-15T10:05:58.468Z,13.13
2018-04-15T10:08:26.057Z,17.13
2018-04-15T10:10:53.648Z,18.87
2018-04-15T10:13:21.180Z,17.27
2018-04-15T10:15:48.769Z,12.97
2018-04-15T10:18:16.312Z,11.87
2018-04-15T10:20:43.860Z,16.67
2018-04-15T10:23:11.594Z,12.47
2018-04-15T10:25:39.148Z,15.83
2018-04-15T10:28:06.696Z,14.93
2018-04-15T10:30:34.408Z,18.93
2018-04-15T10:33:01.969Z,10.67
2018-04-15T10:35:29.511Z,16.83
2018-04-15T10:37:57.415Z,16.13
2018-04-15T10:40:24.965Z,19.77
2018-04-15T10:42:52.515Z,12.37
2018-04-15T10:45:20.400Z,16.20
2018-04-15T10:47:47.966Z,13.90
2018-04-15T10:50:15.514Z,15.97
2018-04-15T10:52:43.095Z,26.07
2018-04-15T10:55:10.635Z,11.17
2018-04-15T10:57:38.185Z,11.20
2018-04-15T11:00:05.904Z,14.93
2018-04-15T11:02:33.457Z,17.10
2018-04-15T11:05:01.026Z,11.80
2018-04-15T11:07:28.887Z,14.03
2018-04-15T11:09:56.447Z,14.17
2018-04-15T11:12:24.004Z,17.60
2018-04-15T11:14:51.610Z,17.90
2018-04-15T11:17:19.188Z,16.17
2018-04-15T11:19:46.751Z,12.20
2018-04-15T11:22:14.361Z,27.90
2018-04-15T11:24:41.907Z,11.40
2018-04-15T11:27:09.455Z,15.47
2018-04-15T11:29:37.034Z,12.03
2018-04-15T11:32:04.593Z,16.83
2018-04-15T11:34:32.154Z,20.40
2018-04-15T11:36:59.891Z,12.60
2018-04-15T11:39:27.439Z,8.53
2018-04-15T11:41:54.995Z,12.83
2018-04-15T11:44:22.748Z,9.63
2018-04-15T11:46:50.298Z,13.50
2018-04-15T11:49:17.865Z,9.27
2018-04-15T11:51:45.673Z,20.33
2018-04-15T11:54:13.234Z,13.23
2018-04-15T11:56:40.792Z,15.23
2018-04-15T11:59:08.378Z,16.70
2018-04-15T12:01:35.941Z,14.90
2018-04-15T12:04:03.518Z,13.47
2018-04-15T12:06:31.097Z,11.13
2018-04-15T12:08:58.654Z,15.07
2018-04-15T12:11:26.524Z,13.00
2018-04-15T12:13:54.084Z,14.10
2018-04-15T12:16:21.656Z,12.67
2018-04-15T12:18:49.392Z,20.37
2018-04-15T12:21:16.950Z,11.10
2018-04-15T12:23:44.504Z,14.47
2018-04-15T12:26:12.384Z,17.63
2018-04-15T12:28:39.938Z,8.33
2018-04-15T12:31:07.491Z,9.87
2018-04-15T12:33:35.067Z,13.40
2018-04-15T12:36:02.641Z,11.53
2018-04-15T12:38:30.196Z,10.23
2018-04-15T12:40:57.857Z,18.00
2018-04-15T12:43:25.407Z,9.87
2018-04-15T12:45:52.957Z,10.13
2018-04-15T12:48:20.539Z,10.37
2018-04-15T12:50:48.085Z,9.80
2018-04-15T12:53:15.638Z,7.83
2018-04-15T12:55:43.447Z,8.17
2018-04-15T12:58:11.012Z,16.00
2018-04-15T13:00:38.592Z,15.33
2018-04-15T13:03:06.202Z,10.63
2018-04-15T13:05:33.749Z,10.30
2018-04-15T13:08:01.292Z,11.40
2018-04-15T13:10:28.852Z,9.20
2018-04-15T13:12:56.421Z,15.63
2018-04-15T13:15:24.012Z,10.17
2018-04-15T13:17:51.622Z,16.57
2018-04-15T13:20:19.172Z,16.33
2018-04-15T13:22:46.731Z,11.47
2018-04-15T13:25:14.420Z,11.80
2018-04-15T13:27:41.964Z,10.13
2018-04-15T13:30:09.512Z,9.60
2018-04-15T13:32:37.114Z,8.70
2018-04-15T13:35:04.699Z,15.37
2018-04-15T13:37:32.251Z,13.07
2018-04-15T13:40:00.040Z,13.30
2018-04-15T13:42:27.614Z,12.43
2018-04-15T13:44:55.174Z,11.77
2018-04-15T13:47:22.915Z,7.40
2018-04-15T13:49:50.499Z,12.23
2018-04-15T13:52:18.057Z,10.23
2018-04-15T13:54:45.766Z,8.33
2018-04-15T13:57:13.338Z,12.50
2018-04-15T13:59:40.896Z,13.33
2018-04-15T14:02:08.608Z,11.27
2018-04-15T14:04:36.164Z,7.60
2018-04-15T14:07:03.730Z,10.50
2018-04-15T14:09:31.621Z,8.43
2018-04-15T14:11:59.159Z,9.07
2018-04-15T14:14:26.737Z,11.40
2018-04-15T14:16:54.337Z,8.83
2018-04-15T14:19:21.878Z,12.50
2018-04-15T14:21:49.470Z,17.23
2018-04-15T14:24:17.081Z,7.40
2018-04-15T14:26:44.636Z,8.40
2018-04-15T14:29:12.196Z,9.47
2018-04-15T14:31:40.077Z,9.47
2018-04-15T14:34:07.665Z,10.03
2018-04-15T14:36:35.227Z,11.97
2018-04-15T14:39:02.848Z,12.40
2018-04-15T14:41:30.482Z,10.70
2018-04-15T14:43:58.048Z,11.27
2018-04-15T14:46:25.780Z,16.50
2018-04-15T14:48:53.368Z,11.67
2018-04-15T14:51:20.935Z,11.97
2018-04-15T14:53:48.667Z,13.17
2018-04-15T14:56:16.279Z,18.83
2018-04-15T14:58:43.844Z,15.40
2018-04-15T15:01:11.458Z,12.50
2018-04-15T15:03:39.013Z,11.93
2018-04-15T15:06:06.566Z,11.87
2018-04-15T15:08:34.221Z,10.07
2018-04-15T15:11:01.777Z,15.03
2018-04-15T15:13:29.420Z,13.13
2018-04-15T15:15:57.257Z,13.00
2018-04-15T15:18:24.830Z,14.13
2018-04-15T15:20:52.379Z,9.50
2018-04-15T15:23:20.134Z,8.60
2018-04-15T15:25:47.713Z,15.17
2018-04-15T15:28:15.365Z,14.50
2018-04-15T15:30:43.121Z,14.23
2018-04-15T15:33:10.679Z,12.67
2018-04-15T15:35:38.233Z,12.17
2018-04-15T15:38:05.985Z,14.27
2018-04-15T15:40:33.560Z,13.13
2018-04-15T15:43:01.118Z,16.13
2018-04-15T15:45:28.853Z,17.77
2018-04-15T15:47:56.437Z,14.97
2018-04-15T15:50:24.015Z,20.20
2018-04-15T15:52:51.776Z,19.03
2018-04-15T15:55:19.328Z,12.97
2018-04-15T15:57:46.883Z,13.20
2018-04-15T16:00:14.505Z,17.10
2018-04-15T16:02:42.030Z,18.67
2018-04-15T16:05:09.596Z,14.07
2018-04-15T16:07:37.488Z,22.07
2018-04-15T16:10:05.068Z,19.40
2018-04-15T16:12:32.649Z,17.30
2018-04-15T16:15:00.226Z,17.47
2018-04-15T16:17:27.791Z,17.60
2018-04-15T16:19:55.369Z,21.97
2018-04-15T16:22:22.977Z,17.57
2018-04-15T16:24:50.625Z,19.67
2018-04-15T16:27:18.199Z,20.40
2018-04-15T16:29:45.800Z,16.47
2018-04-15T16:32:13.361Z,20.87
2018-04-15T16:34:40.920Z,19.67
2018-04-15T16:37:08.525Z,23.23
2018-04-15T16:39:36.121Z,17.43
2018-04-15T16:42:03.731Z,24.10
2018-04-15T16:44:31.529Z,17.77
2018-04-15T16:46:59.169Z,18.97
2018-04-15T16:49:26.760Z,21.53
2018-04-15T16:51:54.406Z,19.73
2018-04-15T16:54:22.047Z,25.60
2018-04-15T16:56:49.636Z,22.40
2018-04-15T16:59:17.284Z,30.63
2018-04-15T17:01:44.869Z,17.97
2018-04-15T17:04:12.712Z,20.83
2018-04-15T17:06:40.532Z,25.37
2018-04-15T17:09:08.341Z,24.37
2018-04-15T17:11:36.217Z,25.03
2018-04-15T17:14:03.839Z,24.23
2018-04-15T17:16:31.435Z,23.03
2018-04-15T17:18:59.163Z,20.97
2018-04-15T17:21:26.854Z,26.60
2018-04-15T17:23:54.580Z,27.70
2018-04-15T17:26:22.238Z,30.93
2018-04-15T17:28:49.825Z,29.40
2018-04-15T17:31:17.535Z,25.27
2018-04-15T17:33:45.159Z,28.40
2018-04-15T17:36:12.770Z,23.93
2018-04-15T17:38:40.555Z,25.10
2018-04-15T17:41:08.174Z,23.50
2018-04-15T17:43:35.767Z,24.23
2018-04-15T17:46:03.457Z,25.57
2018-04-15T17:48:31.298Z,25.80
2018-04-15T17:50:58.893Z,33.40
2018-04-15T17:53:26.635Z,26.80
2018-04-15T17:55:54.263Z,33.63
2018-04-15T17:58:21.976Z,27.13
2018-04-15T18:00:49.721Z,33.67
2018-04-15T18:03:17.403Z,30.37
2018-04-15T18:05:45.266Z,37.97
2018-04-15T18:08:13.029Z,29.93
2018-04-15T18:10:40.755Z,32.57
2018-04-15T18:13:08.374Z,32.90
2018-04-15T18:15:36.023Z,29.77
2018-04-15T18:18:03.577Z,35.97
2018-04-15T18:20:31.388Z,31.30
2018-04-15T18:22:59.282Z,31.73
2018-04-15T18:25:26.897Z,36.17
2018-04-15T18:27:54.724Z,32.43
2018-04-15T18:30:22.405Z,33.23
2018-04-15T18:32:50.097Z,39.40
2018-04-15T18:35:17.669Z,31.77
2018-04-15T18:37:45.514Z,39.13
2018-04-15T18:40:13.126Z,27.07
2018-04-15T18:42:40.728Z,37.20
2018-04-15T18:45:08.680Z,30.87
2018-04-15T18:47:36.379Z,42.17
2018-04-15T18:50:04.167Z,40.37
2018-04-15T18:52:32.096Z,35.93
2018-04-15T18:54:59.726Z,32.77
2018-04-15T18:57:27.528Z,38.63
2018-04-15T18:59:55.285Z,38.13
2018-04-15T19:02:22.880Z,30.23
2018-04-15T19:04:50.455Z,35.87
2018-04-15T19:07:18.145Z,38.00
2018-04-15T19:09:45.755Z,37.03
2018-04-15T19:12:13.362Z,34.27
2018-04-15T19:14:40.965Z,32.03
2018-04-15T19:17:08.572Z,35.40
2018-04-15T19:19:36.205Z,37.53
2018-04-15T19:22:03.860Z,29.90
2018-04-15T19:24:31.448Z,33.10
2018-04-15T19:26:59.025Z,36.10
2018-04-15T19:29:27.032Z,26.43
2018-04-15T19:31:54.714Z,33.70
2018-04-15T19:34:22.388Z,32.97
2018-04-15T19:36:50.180Z,30.77
2018-04-15T19:39:17.791Z,36.07
2018-04-15T19:41:45.391Z,28.87
2018-04-15T19:44:13.154Z,26.80
2018-04-15T19:46:40.992Z,32.33
2018-04-15T19:49:08.604Z,32.27
2018-04-15T19:51:36.388Z,30.07
2018-04-15T19:54:03.987Z,30.03
2018-04-15T19:56:31.566Z,27.07
2018-04-15T19:58:59.185Z,28.47
2018-04-15T20:01:26.756Z,33.83
2018-04-15T20:03:54.328Z,29.47
2018-04-15T20:06:21.953Z,29.07
2018-04-15T20:08:49.517Z,24.27
2018-04-15T20:11:17.147Z,31.43
2018-04-15T20:13:44.820Z,32.73
2018-04-15T20:16:12.413Z,25.77
2018-04-15T20:18:40.005Z,25.07
2018-04-15T20:21:07.717Z,33.97
2018-04-15T20:23:35.295Z,29.17
2018-04-15T20:26:02.860Z,30.80
2018-04-15T20:28:30.454Z,27.27
2018-04-15T20:30:58.014Z,21.30
2018-04-15T20:33:25.585Z,27.87
2018-04-15T20:35:53.316Z,25.87
2018-04-15T20:38:20.863Z,30.57
2018-04-15T20:40:48.451Z,28.63
2018-04-15T20:43:16.049Z,24.73
2018-04-15T20:45:43.616Z,23.70
2018-04-15T20:48:11.231Z,24.13
2018-04-15T20:50:38.811Z,33.77
2018-04-15T20:53:06.414Z,27.43
2018-04-15T20:55:33.993Z,25.77
2018-04-15T20:58:01.585Z,25.87
2018-04-15T21:00:29.153Z,27.27
2018-04-15T21:02:56.706Z,18.10
2018-04-15T21:05:24.336Z,29.17
2018-04-15T21:07:51.964Z,25.40
2018-04-15T21:10:19.540Z,25.00
2018-04-15T21:12:47.414Z,26.37
2018-04-15T21:15:14.977Z,22.07
2018-04-15T21:17:42.520Z,22.77
2018-04-15T21:20:11.635Z,23.87
2018-04-15T21:22:39.210Z,30.57
2018-04-15T21:25:07.679Z,23.87
2018-04-15T21:27:35.413Z,26.90
2018-04-15T21:30:02.965Z,29.77
2018-04-15T21:32:30.555Z,25.40
2018-04-15T21:34:58.289Z,24.20
2018-04-15T21:37:25.889Z,22.03
2018-04-15T21:39:53.470Z,30.27
2018-04-15T21:42:21.077Z,29.13
2018-04-15T21:44:48.630Z,23.13
2018-04-15T21:47:16.183Z,32.27
2018-04-15T21:49:43.776Z,27.27
2018-04-15T21:52:11.331Z,31.67
2018-04-15T21:54:38.877Z,28.93
2018-04-15T21:57:06.638Z,24.80
2018-04-15T21:59:34.197Z,26.00
2018-04-15T22:02:01.762Z,32.50
2018-04-15T22:04:29.389Z,33.20
2018-04-15T22:06:56.956Z,28.63
2018-04-15T22:09:24.503Z,29.83
2018-04-15T22:12:03.714Z,44.40
2018-04-15T22:14:31.266Z,29.03
2018-04-15T22:16:58.820Z,27.67
2018-04-15T22:19:26.501Z,34.90
2018-04-15T22:21:54.068Z,30.63
2018-04-15T22:24:21.649Z,28.40
2018-04-15T22:26:49.857Z,23.63
2018-04-15T22:29:17.440Z,32.40
2018-04-15T22:31:45.023Z,27.17
2018-04-15T22:34:12.578Z,29.53
2018-04-15T22:36:40.125Z,31.80
2018-04-15T22:39:07.712Z,28.90
2018-04-15T22:41:35.278Z,26.60
2018-04-15T22:44:02.824Z,28.27
2018-04-15T22:46:30.544Z,30.57
2018-04-15T22:48:58.113Z,29.20
2018-04-15T22:51:25.695Z,31.43
2018-04-15T22:53:53.424Z,29.00
2018-04-15T22:56:21.001Z,27.87
2018-04-15T22:58:48.548Z,28.80
2018-04-15T23:01:16.188Z,23.47
2018-04-15T23:03:43.748Z,25.53
2018-04-15T23:06:11.320Z,26.67
2018-04-15T23:08:38.916Z,24.37
2018-04-15T23:11:06.504Z,25.80
2018-04-15T23:13:34.081Z,24.57
2018-04-15T23:16:01.676Z,20.07
2018-04-15T23:18:29.234Z,24.57
2018-04-15T23:20:56.784Z,24.07
2018-04-15T23:23:24.348Z,20.37
2018-04-15T23:25:51.897Z,34.77
2018-04-15T23:28:19.454Z,27.10
2018-04-15T23:30:47.058Z,25.37
2018-04-15T23:33:14.623Z,26.67
2018-04-15T23:35:42.180Z,21.23
2018-04-15T23:38:09.772Z,28.03
2018-04-15T23:40:37.356Z,26.10
2018-04-15T23:43:04.904Z,24.93
2018-04-15T23:45:32.628Z,21.23
2018-04-15T23:48:00.182Z,23.33
2018-04-15T23:50:27.725Z,21.17
2018-04-15T23:52:55.470Z,20.70
2018-04-15T23:55:23.017Z,20.77
2018-04-15T23:57:50.583Z,26.67
